sensor_id;sensor_type;location;lat;lon;timestamp;pressure;altitude;pressure_sealevel;temperature;humidity
80837;BME280;70251;60.008;30.404;2024-03-06T00:00:04;102732.31;;;2.60;49.68
80837;BME280;70251;60.008;30.404;2024-03-06T00:02:31;102726.97;;;2.63;49.65
80837;BME280;70251;60.008;30.404;2024-03-06T00:04:59;102738.41;;;2.62;49.83
80837;BME280;70251;60.008;30.404;2024-03-06T00:07:25;102727.91;;;2.61;49.82
80837;BME280;70251;60.008;30.404;2024-03-06T00:09:51;102736.59;;;2.66;49.55
80837;BME280;70251;60.008;30.404;2024-03-06T00:12:18;102719.94;;;2.64;49.20
80837;BME280;70251;60.008;30.404;2024-03-06T00:14:44;102729.53;;;2.66;49.10
80837;BME280;70251;60.008;30.404;2024-03-06T00:17:10;102737.47;;;2.65;49.12
80837;BME280;70251;60.008;30.404;2024-03-06T00:19:36;102733.03;;;2.67;49.16
80837;BME280;70251;60.008;30.404;2024-03-06T00:22:09;102741.84;;;2.66;49.46
80837;BME280;70251;60.008;30.404;2024-03-06T00:24:47;102702.84;;;2.45;49.62
80837;BME280;70251;60.008;30.404;2024-03-06T00:30:50;102743.66;;;2.64;49.86
80837;BME280;70251;60.008;30.404;2024-03-06T00:35:54;102706.44;;;2.39;49.83
80837;BME280;70251;60.008;30.404;2024-03-06T00:38:20;102716.00;;;2.45;49.79
80837;BME280;70251;60.008;30.404;2024-03-06T00:40:45;102725.47;;;2.52;50.05
80837;BME280;70251;60.008;30.404;2024-03-06T00:43:11;102721.13;;;2.51;49.95
80837;BME280;70251;60.008;30.404;2024-03-06T00:45:37;102721.78;;;2.60;49.90
80837;BME280;70251;60.008;30.404;2024-03-06T00:48:02;102719.19;;;2.59;49.47
80837;BME280;70251;60.008;30.404;2024-03-06T00:50:29;102730.44;;;2.65;49.66
80837;BME280;70251;60.008;30.404;2024-03-06T00:52:54;102730.59;;;2.59;49.79
80837;BME280;70251;60.008;30.404;2024-03-06T00:55:20;102733.38;;;2.52;49.99
80837;BME280;70251;60.008;30.404;2024-03-06T00:57:45;102731.84;;;2.42;50.08
80837;BME280;70251;60.008;30.404;2024-03-06T01:00:12;102736.44;;;2.33;50.46
80837;BME280;70251;60.008;30.404;2024-03-06T01:02:38;102742.66;;;2.29;50.51
80837;BME280;70251;60.008;30.404;2024-03-06T01:05:04;102744.59;;;2.21;51.05
80837;BME280;70251;60.008;30.404;2024-03-06T01:07:30;102741.19;;;2.16;50.82
80837;BME280;70251;60.008;30.404;2024-03-06T01:09:56;102735.91;;;2.16;51.18
80837;BME280;70251;60.008;30.404;2024-03-06T01:12:25;102743.84;;;2.13;51.15
80837;BME280;70251;60.008;30.404;2024-03-06T01:15:09;102737.00;;;2.06;51.05
80837;BME280;70251;60.008;30.404;2024-03-06T01:17:35;102739.75;;;2.00;50.83
80837;BME280;70251;60.008;30.404;2024-03-06T01:20:01;102736.38;;;1.94;51.13
80837;BME280;70251;60.008;30.404;2024-03-06T01:22:29;102735.66;;;1.86;51.33
80837;BME280;70251;60.008;30.404;2024-03-06T01:24:55;102727.88;;;1.80;50.77
80837;BME280;70251;60.008;30.404;2024-03-06T01:27:20;102728.75;;;1.80;50.87
80837;BME280;70251;60.008;30.404;2024-03-06T01:29:46;102736.53;;;1.86;51.06
80837;BME280;70251;60.008;30.404;2024-03-06T01:32:12;102737.28;;;1.93;50.79
80837;BME280;70251;60.008;30.404;2024-03-06T01:34:38;102728.59;;;1.88;50.93
80837;BME280;70251;60.008;30.404;2024-03-06T01:37:04;102738.19;;;1.90;51.13
80837;BME280;70251;60.008;30.404;2024-03-06T01:39:29;102740.06;;;1.85;51.28
80837;BME280;70251;60.008;30.404;2024-03-06T01:41:55;102739.38;;;1.76;50.96
80837;BME280;70251;60.008;30.404;2024-03-06T01:44:21;102741.34;;;1.63;51.39
80837;BME280;70251;60.008;30.404;2024-03-06T01:46:47;102739.69;;;1.59;51.41
80837;BME280;70251;60.008;30.404;2024-03-06T01:49:13;102740.56;;;1.58;51.30
80837;BME280;70251;60.008;30.404;2024-03-06T01:51:41;102738.03;;;1.52;51.58
80837;BME280;70251;60.008;30.404;2024-03-06T01:54:08;102730.19;;;1.50;51.35
80837;BME280;70251;60.008;30.404;2024-03-06T01:56:45;102731.13;;;1.48;51.85
80837;BME280;70251;60.008;30.404;2024-03-06T01:59:13;102731.25;;;1.39;51.90
80837;BME280;70251;60.008;30.404;2024-03-06T02:01:41;102733.31;;;1.22;51.62
80837;BME280;70251;60.008;30.404;2024-03-06T02:04:08;102732.63;;;1.12;52.37
80837;BME280;70251;60.008;30.404;2024-03-06T02:06:40;102739.56;;;1.16;52.39
80837;BME280;70251;60.008;30.404;2024-03-06T02:09:08;102734.25;;;1.18;52.02
80837;BME280;70251;60.008;30.404;2024-03-06T02:11:36;102737.59;;;1.29;51.82
80837;BME280;70251;60.008;30.404;2024-03-06T02:14:20;102735.78;;;1.31;51.85
80837;BME280;70251;60.008;30.404;2024-03-06T02:16:46;102734.81;;;1.36;51.70
80837;BME280;70251;60.008;30.404;2024-03-06T02:19:41;102733.91;;;1.39;51.92
80837;BME280;70251;60.008;30.404;2024-03-06T02:22:08;102728.59;;;1.42;51.35
80837;BME280;70251;60.008;30.404;2024-03-06T02:24:37;102723.38;;;1.40;51.28
80837;BME280;70251;60.008;30.404;2024-03-06T02:27:11;102732.06;;;1.44;51.67
80837;BME280;70251;60.008;30.404;2024-03-06T02:29:36;102737.25;;;1.47;51.34
80837;BME280;70251;60.008;30.404;2024-03-06T02:32:03;102727.81;;;1.37;51.47
80837;BME280;70251;60.008;30.404;2024-03-06T02:34:29;102746.47;;;1.23;51.72
80837;BME280;70251;60.008;30.404;2024-03-06T02:37:22;102737.81;;;1.17;52.15
80837;BME280;70251;60.008;30.404;2024-03-06T02:39:50;102747.47;;;1.15;51.82
80837;BME280;70251;60.008;30.404;2024-03-06T02:42:18;102745.84;;;1.08;51.66
80837;BME280;70251;60.008;30.404;2024-03-06T02:44:44;102747.59;;;1.07;51.86
80837;BME280;70251;60.008;30.404;2024-03-06T02:47:09;102744.06;;;1.07;51.41
80837;BME280;70251;60.008;30.404;2024-03-06T02:49:36;102748.56;;;1.02;52.03
80837;BME280;70251;60.008;30.404;2024-03-06T02:52:03;102740.66;;;1.03;51.39
80837;BME280;70251;60.008;30.404;2024-03-06T02:54:32;102726.03;;;0.86;51.64
80837;BME280;70251;60.008;30.404;2024-03-06T02:57:07;102745.16;;;0.95;51.83
80837;BME280;70251;60.008;30.404;2024-03-06T02:59:49;102740.03;;;0.86;51.62
80837;BME280;70251;60.008;30.404;2024-03-06T03:02:16;102747.09;;;0.83;52.32
80837;BME280;70251;60.008;30.404;2024-03-06T03:04:43;102728.06;;;0.67;52.30
80837;BME280;70251;60.008;30.404;2024-03-06T03:07:09;102745.59;;;0.66;51.90
80837;BME280;70251;60.008;30.404;2024-03-06T03:09:41;102718.56;;;0.58;52.06
80837;BME280;70251;60.008;30.404;2024-03-06T03:12:10;102733.44;;;0.59;52.06
80837;BME280;70251;60.008;30.404;2024-03-06T03:14:54;102756.03;;;0.71;52.27
80837;BME280;70251;60.008;30.404;2024-03-06T03:17:20;102736.84;;;0.64;51.91
80837;BME280;70251;60.008;30.404;2024-03-06T03:19:48;102761.13;;;0.82;51.43
80837;BME280;70251;60.008;30.404;2024-03-06T03:22:25;102762.91;;;0.79;51.66
80837;BME280;70251;60.008;30.404;2024-03-06T03:25:13;102764.56;;;0.87;52.26
80837;BME280;70251;60.008;30.404;2024-03-06T03:27:45;102768.09;;;0.84;51.77
80837;BME280;70251;60.008;30.404;2024-03-06T03:30:17;102757.72;;;0.76;51.88
80837;BME280;70251;60.008;30.404;2024-03-06T03:32:55;102735.97;;;0.64;51.29
80837;BME280;70251;60.008;30.404;2024-03-06T03:35:25;102731.66;;;0.61;51.49
80837;BME280;70251;60.008;30.404;2024-03-06T03:37:55;102762.88;;;0.83;51.14
80837;BME280;70251;60.008;30.404;2024-03-06T03:40:24;102745.56;;;0.69;51.45
80837;BME280;70251;60.008;30.404;2024-03-06T03:42:52;102744.69;;;0.69;52.21
80837;BME280;70251;60.008;30.404;2024-03-06T03:45:18;102744.66;;;0.70;51.59
80837;BME280;70251;60.008;30.404;2024-03-06T03:47:46;102738.50;;;0.71;51.37
80837;BME280;70251;60.008;30.404;2024-03-06T03:50:11;102725.31;;;0.76;51.21
80837;BME280;70251;60.008;30.404;2024-03-06T03:52:41;102745.25;;;0.89;51.60
80837;BME280;70251;60.008;30.404;2024-03-06T03:55:09;102707.88;;;0.70;51.79
80837;BME280;70251;60.008;30.404;2024-03-06T03:57:37;102717.50;;;0.71;51.36
80837;BME280;70251;60.008;30.404;2024-03-06T04:00:04;102707.03;;;0.68;51.22
80837;BME280;70251;60.008;30.404;2024-03-06T04:02:39;102699.31;;;0.59;51.49
80837;BME280;70251;60.008;30.404;2024-03-06T04:05:05;102721.84;;;0.72;51.99
80837;BME280;70251;60.008;30.404;2024-03-06T04:07:31;102729.78;;;0.69;52.32
80837;BME280;70251;60.008;30.404;2024-03-06T04:09:57;102714.03;;;0.69;52.55
80837;BME280;70251;60.008;30.404;2024-03-06T04:12:24;102716.66;;;0.69;52.46
80837;BME280;70251;60.008;30.404;2024-03-06T04:14:50;102707.13;;;0.62;52.21
80837;BME280;70251;60.008;30.404;2024-03-06T04:17:16;102718.34;;;0.73;52.55
80837;BME280;70251;60.008;30.404;2024-03-06T04:19:42;102707.06;;;0.67;52.33
80837;BME280;70251;60.008;30.404;2024-03-06T04:22:08;102714.06;;;0.66;52.57
80837;BME280;70251;60.008;30.404;2024-03-06T04:24:34;102686.25;;;0.53;52.64
80837;BME280;70251;60.008;30.404;2024-03-06T04:27:04;102715.84;;;0.66;53.04
80837;BME280;70251;60.008;30.404;2024-03-06T04:29:30;102717.53;;;0.68;52.18
80837;BME280;70251;60.008;30.404;2024-03-06T04:31:59;102701.03;;;0.60;52.80
80837;BME280;70251;60.008;30.404;2024-03-06T04:34:31;102722.72;;;0.74;52.64
80837;BME280;70251;60.008;30.404;2024-03-06T04:37:08;102715.75;;;0.70;53.15
80837;BME280;70251;60.008;30.404;2024-03-06T04:39:37;102708.94;;;0.59;53.05
80837;BME280;70251;60.008;30.404;2024-03-06T04:42:11;102729.75;;;0.71;52.99
80837;BME280;70251;60.008;30.404;2024-03-06T04:44:48;102714.22;;;0.56;52.46
80837;BME280;70251;60.008;30.404;2024-03-06T05:05:13;102704.19;;;0.24;53.17
80837;BME280;70251;60.008;30.404;2024-03-06T05:07:39;102699.69;;;0.32;53.02
80837;BME280;70251;60.008;30.404;2024-03-06T05:10:05;102698.81;;;0.33;53.21
80837;BME280;70251;60.008;30.404;2024-03-06T05:12:33;102693.50;;;0.38;53.55
80837;BME280;70251;60.008;30.404;2024-03-06T05:14:59;102695.06;;;0.49;53.58
80837;BME280;70251;60.008;30.404;2024-03-06T05:17:28;102690.75;;;0.47;52.97
80837;BME280;70251;60.008;30.404;2024-03-06T05:19:54;102695.03;;;0.52;53.04
80837;BME280;70251;60.008;30.404;2024-03-06T05:22:20;102691.50;;;0.53;53.31
80837;BME280;70251;60.008;30.404;2024-03-06T05:24:46;102695.81;;;0.59;52.96
80837;BME280;70251;60.008;30.404;2024-03-06T05:27:12;102688.88;;;0.55;52.59
80837;BME280;70251;60.008;30.404;2024-03-06T05:29:42;102706.34;;;0.57;53.12
80837;BME280;70251;60.008;30.404;2024-03-06T05:32:08;102694.06;;;0.58;52.51
80837;BME280;70251;60.008;30.404;2024-03-06T05:34:34;102702.78;;;0.60;52.46
80837;BME280;70251;60.008;30.404;2024-03-06T05:37:00;102693.22;;;0.57;52.52
80837;BME280;70251;60.008;30.404;2024-03-06T05:39:30;102692.34;;;0.57;53.15
80837;BME280;70251;60.008;30.404;2024-03-06T05:41:59;102687.13;;;0.55;52.48
80837;BME280;70251;60.008;30.404;2024-03-06T05:44:34;102685.44;;;0.50;52.92
80837;BME280;70251;60.008;30.404;2024-03-06T05:47:02;102700.34;;;0.48;53.13
80837;BME280;70251;60.008;30.404;2024-03-06T05:49:28;102693.34;;;0.48;52.72
80837;BME280;70251;60.008;30.404;2024-03-06T05:51:54;102696.84;;;0.47;52.94
80837;BME280;70251;60.008;30.404;2024-03-06T05:54:21;102689.03;;;0.43;53.44
80837;BME280;70251;60.008;30.404;2024-03-06T05:56:51;102688.13;;;0.47;52.66
80837;BME280;70251;60.008;30.404;2024-03-06T05:59:18;102683.69;;;0.50;52.67
80837;BME280;70251;60.008;30.404;2024-03-06T06:01:45;102683.59;;;0.56;52.80
80837;BME280;70251;60.008;30.404;2024-03-06T06:04:14;102694.91;;;0.60;53.08
80837;BME280;70251;60.008;30.404;2024-03-06T06:06:40;102677.47;;;0.57;52.80
80837;BME280;70251;60.008;30.404;2024-03-06T06:09:09;102691.38;;;0.62;53.05
80837;BME280;70251;60.008;30.404;2024-03-06T06:11:44;102689.81;;;0.51;52.95
80837;BME280;70251;60.008;30.404;2024-03-06T06:14:10;102685.56;;;0.42;53.21
80837;BME280;70251;60.008;30.404;2024-03-06T06:16:37;102690.72;;;0.48;53.39
80837;BME280;70251;60.008;30.404;2024-03-06T06:19:03;102691.59;;;0.47;53.32
80837;BME280;70251;60.008;30.404;2024-03-06T06:21:30;102682.09;;;0.40;53.71
80837;BME280;70251;60.008;30.404;2024-03-06T06:23:56;102690.75;;;0.45;52.91
80837;BME280;70251;60.008;30.404;2024-03-06T06:26:21;102687.38;;;0.37;53.68
80837;BME280;70251;60.008;30.404;2024-03-06T06:28:47;102687.34;;;0.40;53.78
80837;BME280;70251;60.008;30.404;2024-03-06T06:31:13;102686.50;;;0.38;53.70
80837;BME280;70251;60.008;30.404;2024-03-06T06:33:39;102690.84;;;0.39;53.67
80837;BME280;70251;60.008;30.404;2024-03-06T06:36:09;102684.50;;;0.54;53.66
80837;BME280;70251;60.008;30.404;2024-03-06T06:38:35;102671.41;;;0.52;53.50
80837;BME280;70251;60.008;30.404;2024-03-06T06:41:01;102672.22;;;0.57;53.91
80837;BME280;70251;60.008;30.404;2024-03-06T06:43:26;102671.19;;;0.67;52.82
80837;BME280;70251;60.008;30.404;2024-03-06T06:45:52;102687.69;;;0.75;53.46
80837;BME280;70251;60.008;30.404;2024-03-06T06:48:18;102677.94;;;0.82;53.36
80837;BME280;70251;60.008;30.404;2024-03-06T06:50:44;102671.72;;;0.88;53.08
80837;BME280;70251;60.008;30.404;2024-03-06T06:53:09;102666.53;;;0.85;52.78
80837;BME280;70251;60.008;30.404;2024-03-06T06:55:35;102678.59;;;0.95;53.06
80837;BME280;70251;60.008;30.404;2024-03-06T06:58:01;102666.19;;;1.03;52.58
80837;BME280;70251;60.008;30.404;2024-03-06T07:00:27;102664.38;;;1.08;52.42
80837;BME280;70251;60.008;30.404;2024-03-06T07:02:53;102669.63;;;1.08;52.31
80837;BME280;70251;60.008;30.404;2024-03-06T07:05:19;102675.66;;;1.14;52.38
80837;BME280;70251;60.008;30.404;2024-03-06T07:07:45;102658.84;;;1.23;51.61
80837;BME280;70251;60.008;30.404;2024-03-06T07:10:11;102661.41;;;1.27;51.27
80837;BME280;70251;60.008;30.404;2024-03-06T07:12:37;102665.84;;;1.22;51.52
80837;BME280;70251;60.008;30.404;2024-03-06T07:18:05;102665.88;;;1.21;51.44
80837;BME280;70251;60.008;30.404;2024-03-06T07:20:42;102645.81;;;1.17;51.08
80837;BME280;70251;60.008;30.404;2024-03-06T07:23:08;102660.56;;;1.25;50.92
80837;BME280;70251;60.008;30.404;2024-03-06T07:25:34;102662.19;;;1.31;50.95
80837;BME280;70251;60.008;30.404;2024-03-06T07:28:02;102655.25;;;1.27;50.89
80837;BME280;70251;60.008;30.404;2024-03-06T07:30:27;102648.25;;;1.27;51.06
80837;BME280;70251;60.008;30.404;2024-03-06T07:32:55;102661.94;;;1.43;50.96
80837;BME280;70251;60.008;30.404;2024-03-06T07:35:23;102637.38;;;1.45;50.58
80837;BME280;70251;60.008;30.404;2024-03-06T07:37:48;102636.41;;;1.49;51.03
80837;BME280;70251;60.008;30.404;2024-03-06T07:40:23;102619.53;;;1.61;50.86
80837;BME280;70251;60.008;30.404;2024-03-06T07:42:54;102625.66;;;1.62;50.47
80837;BME280;70251;60.008;30.404;2024-03-06T07:45:20;102628.06;;;1.72;50.67
80837;BME280;70251;60.008;30.404;2024-03-06T07:47:46;102621.44;;;1.96;50.62
80837;BME280;70251;60.008;30.404;2024-03-06T07:50:11;102613.22;;;2.09;50.35
80837;BME280;70251;60.008;30.404;2024-03-06T07:52:38;102610.88;;;2.35;50.08
80837;BME280;70251;60.008;30.404;2024-03-06T07:55:05;102600.78;;;2.53;49.57
80837;BME280;70251;60.008;30.404;2024-03-06T07:57:31;102615.31;;;2.69;49.32
80837;BME280;70251;60.008;30.404;2024-03-06T07:59:56;102590.38;;;2.82;49.51
80837;BME280;70251;60.008;30.404;2024-03-06T08:02:22;102604.09;;;2.96;49.05
80837;BME280;70251;60.008;30.404;2024-03-06T08:04:48;102616.72;;;3.15;48.69
80837;BME280;70251;60.008;30.404;2024-03-06T08:07:20;102603.16;;;3.29;48.68
80837;BME280;70251;60.008;30.404;2024-03-06T08:09:46;102601.13;;;3.39;48.29
80837;BME280;70251;60.008;30.404;2024-03-06T08:12:12;102614.19;;;3.45;47.67
80837;BME280;70251;60.008;30.404;2024-03-06T08:14:37;102599.75;;;3.56;47.68
80837;BME280;70251;60.008;30.404;2024-03-06T08:17:03;102600.41;;;3.93;47.14
80837;BME280;70251;60.008;30.404;2024-03-06T08:19:29;102603.50;;;4.08;46.77
80837;BME280;70251;60.008;30.404;2024-03-06T08:21:55;102602.59;;;4.36;46.60
80837;BME280;70251;60.008;30.404;2024-03-06T08:24:20;102583.25;;;4.62;46.23
80837;BME280;70251;60.008;30.404;2024-03-06T08:26:51;102589.00;;;4.75;45.54
80837;BME280;70251;60.008;30.404;2024-03-06T08:29:28;102587.00;;;4.81;45.06
80837;BME280;70251;60.008;30.404;2024-03-06T08:32:06;102581.28;;;5.18;45.38
80837;BME280;70251;60.008;30.404;2024-03-06T08:34:32;102560.94;;;5.20;44.50
80837;BME280;70251;60.008;30.404;2024-03-06T08:37:03;102567.19;;;5.42;44.41
80837;BME280;70251;60.008;30.404;2024-03-06T08:39:29;102596.13;;;5.46;43.07
80837;BME280;70251;60.008;30.404;2024-03-06T08:41:54;102578.28;;;5.51;43.48
80837;BME280;70251;60.008;30.404;2024-03-06T08:44:20;102580.50;;;5.64;43.33
80837;BME280;70251;60.008;30.404;2024-03-06T08:46:45;102578.16;;;5.78;43.13
80837;BME280;70251;60.008;30.404;2024-03-06T08:49:11;102575.22;;;5.87;43.10
80837;BME280;70251;60.008;30.404;2024-03-06T08:51:38;102572.41;;;6.13;43.26
80837;BME280;70251;60.008;30.404;2024-03-06T08:54:03;102573.06;;;6.18;42.00
80837;BME280;70251;60.008;30.404;2024-03-06T08:56:29;102581.72;;;6.45;42.22
80837;BME280;70251;60.008;30.404;2024-03-06T08:58:55;102570.78;;;6.52;41.78
80837;BME280;70251;60.008;30.404;2024-03-06T09:01:39;102573.50;;;6.72;41.46
80837;BME280;70251;60.008;30.404;2024-03-06T09:04:04;102558.13;;;7.00;41.25
80837;BME280;70251;60.008;30.404;2024-03-06T09:06:30;102572.03;;;7.05;40.90
80837;BME280;70251;60.008;30.404;2024-03-06T09:08:56;102565.03;;;7.04;40.45
80837;BME280;70251;60.008;30.404;2024-03-06T09:11:21;102574.50;;;7.10;40.78
80837;BME280;70251;60.008;30.404;2024-03-06T09:13:47;102562.50;;;7.22;40.35
80837;BME280;70251;60.008;30.404;2024-03-06T09:16:13;102556.22;;;7.43;40.30
80837;BME280;70251;60.008;30.404;2024-03-06T09:18:39;102551.72;;;7.63;39.90
80837;BME280;70251;60.008;30.404;2024-03-06T09:21:04;102542.16;;;7.97;40.12
80837;BME280;70251;60.008;30.404;2024-03-06T09:23:30;102531.84;;;8.45;39.90
80837;BME280;70251;60.008;30.404;2024-03-06T09:25:57;102535.31;;;8.64;38.83
80837;BME280;70251;60.008;30.404;2024-03-06T09:28:23;102531.22;;;8.91;38.39
80837;BME280;70251;60.008;30.404;2024-03-06T09:30:49;102531.78;;;8.81;38.44
80837;BME280;70251;60.008;30.404;2024-03-06T09:33:14;102536.47;;;8.76;38.19
80837;BME280;70251;60.008;30.404;2024-03-06T09:35:40;102525.25;;;8.69;38.33
80837;BME280;70251;60.008;30.404;2024-03-06T09:38:11;102522.59;;;8.69;37.91
80837;BME280;70251;60.008;30.404;2024-03-06T09:40:40;102513.47;;;8.75;37.97
80837;BME280;70251;60.008;30.404;2024-03-06T09:43:11;102506.41;;;8.91;37.75
80837;BME280;70251;60.008;30.404;2024-03-06T09:45:37;102531.06;;;8.77;37.35
80837;BME280;70251;60.008;30.404;2024-03-06T09:48:04;102512.69;;;8.55;37.50
80837;BME280;70251;60.008;30.404;2024-03-06T09:50:31;102514.84;;;8.82;37.53
80837;BME280;70251;60.008;30.404;2024-03-06T09:53:01;102499.56;;;9.19;37.58
80837;BME280;70251;60.008;30.404;2024-03-06T09:55:29;102498.09;;;9.29;37.05
80837;BME280;70251;60.008;30.404;2024-03-06T09:57:59;102505.19;;;9.46;36.10
80837;BME280;70251;60.008;30.404;2024-03-06T10:00:43;102486.53;;;9.46;36.24
80837;BME280;70251;60.008;30.404;2024-03-06T10:03:09;102487.97;;;9.36;36.24
80837;BME280;70251;60.008;30.404;2024-03-06T10:05:36;102483.88;;;9.46;36.36
80837;BME280;70251;60.008;30.404;2024-03-06T10:08:03;102466.88;;;9.16;36.38
80837;BME280;70251;60.008;30.404;2024-03-06T10:10:30;102474.47;;;8.91;36.55
80837;BME280;70251;60.008;30.404;2024-03-06T10:12:56;102507.81;;;8.81;36.73
80837;BME280;70251;60.008;30.404;2024-03-06T10:15:23;102474.59;;;9.05;37.16
80837;BME280;70251;60.008;30.404;2024-03-06T10:18:19;102493.97;;;8.91;35.89
80837;BME280;70251;60.008;30.404;2024-03-06T10:20:44;102490.22;;;8.78;36.49
80837;BME280;70251;60.008;30.404;2024-03-06T10:23:10;102479.78;;;8.91;36.78
80837;BME280;70251;60.008;30.404;2024-03-06T10:25:36;102471.66;;;8.94;36.57
80837;BME280;70251;60.008;30.404;2024-03-06T10:28:07;102466.66;;;9.36;36.52
80837;BME280;70251;60.008;30.404;2024-03-06T10:30:42;102466.44;;;9.72;36.16
80837;BME280;70251;60.008;30.404;2024-03-06T10:33:09;102455.47;;;10.07;36.07
80837;BME280;70251;60.008;30.404;2024-03-06T10:35:35;102455.97;;;10.30;35.88
80837;BME280;70251;60.008;30.404;2024-03-06T10:38:06;102476.06;;;10.21;35.20
80837;BME280;70251;60.008;30.404;2024-03-06T10:40:50;102482.59;;;9.84;35.51
80837;BME280;70251;60.008;30.404;2024-03-06T10:43:17;102473.91;;;9.65;35.76
80837;BME280;70251;60.008;30.404;2024-03-06T10:45:51;102456.44;;;10.06;35.17
80837;BME280;70251;60.008;30.404;2024-03-06T10:48:21;102458.50;;;10.33;35.82
80837;BME280;70251;60.008;30.404;2024-03-06T10:51:07;102447.06;;;10.31;35.43
80837;BME280;70251;60.008;30.404;2024-03-06T10:53:33;102452.66;;;10.70;35.31
80837;BME280;70251;60.008;30.404;2024-03-06T10:56:01;102444.38;;;10.88;35.18
80837;BME280;70251;60.008;30.404;2024-03-06T10:58:30;102436.19;;;10.91;34.79
80837;BME280;70251;60.008;30.404;2024-03-06T11:01:18;102442.75;;;10.72;34.60
80837;BME280;70251;60.008;30.404;2024-03-06T11:03:47;102440.97;;;10.43;34.89
80837;BME280;70251;60.008;30.404;2024-03-06T11:06:19;102420.53;;;10.28;35.03
80837;BME280;70251;60.008;30.404;2024-03-06T11:08:44;102455.09;;;10.45;35.02
80837;BME280;70251;60.008;30.404;2024-03-06T11:11:23;102433.47;;;10.63;34.61
80837;BME280;70251;60.008;30.404;2024-03-06T11:13:53;102437.59;;;10.69;34.44
80837;BME280;70251;60.008;30.404;2024-03-06T11:16:30;102421.66;;;10.67;34.27
80837;BME280;70251;60.008;30.404;2024-03-06T11:19:08;102430.06;;;10.61;34.00
80837;BME280;70251;60.008;30.404;2024-03-06T11:21:53;102419.84;;;10.54;34.09
80837;BME280;70251;60.008;30.404;2024-03-06T11:24:20;102430.63;;;10.23;34.91
80837;BME280;70251;60.008;30.404;2024-03-06T11:26:57;102413.44;;;10.42;34.73
80837;BME280;70251;60.008;30.404;2024-03-06T11:29:24;102414.53;;;10.68;34.63
80837;BME280;70251;60.008;30.404;2024-03-06T11:32:07;102406.16;;;10.88;34.30
80837;BME280;70251;60.008;30.404;2024-03-06T11:34:34;102406.03;;;10.75;34.38
80837;BME280;70251;60.008;30.404;2024-03-06T11:37:04;102403.47;;;10.60;34.48
80837;BME280;70251;60.008;30.404;2024-03-06T11:39:34;102413.88;;;10.64;34.46
80837;BME280;70251;60.008;30.404;2024-03-06T11:42:00;102403.72;;;10.41;34.57
80837;BME280;70251;60.008;30.404;2024-03-06T11:44:29;102398.97;;;10.17;34.78
80837;BME280;70251;60.008;30.404;2024-03-06T11:47:05;102398.72;;;10.21;34.87
80837;BME280;70251;60.008;30.404;2024-03-06T11:49:33;102375.94;;;10.00;35.23
80837;BME280;70251;60.008;30.404;2024-03-06T11:52:04;102409.22;;;9.93;35.01
80837;BME280;70251;60.008;30.404;2024-03-06T11:54:31;102376.63;;;9.43;35.39
80837;BME280;70251;60.008;30.404;2024-03-06T11:57:04;102370.63;;;9.39;35.16
80837;BME280;70251;60.008;30.404;2024-03-06T11:59:32;102387.28;;;9.27;35.70
80837;BME280;70251;60.008;30.404;2024-03-06T12:02:00;102390.47;;;9.33;35.77
80837;BME280;70251;60.008;30.404;2024-03-06T12:04:31;102389.16;;;9.25;36.13
80837;BME280;70251;60.008;30.404;2024-03-06T12:06:58;102382.03;;;9.10;36.04
80837;BME280;70251;60.008;30.404;2024-03-06T12:09:35;102396.53;;;9.04;36.31
80837;BME280;70251;60.008;30.404;2024-03-06T12:12:02;102384.28;;;9.17;36.15
80837;BME280;70251;60.008;30.404;2024-03-06T12:14:28;102378.69;;;9.22;36.32
80837;BME280;70251;60.008;30.404;2024-03-06T12:17:10;102396.63;;;9.03;36.41
80837;BME280;70251;60.008;30.404;2024-03-06T12:19:38;102367.41;;;9.01;36.56
80837;BME280;70251;60.008;30.404;2024-03-06T12:22:04;102389.56;;;9.02;36.60
80837;BME280;70251;60.008;30.404;2024-03-06T12:24:31;102368.44;;;8.99;37.03
80837;BME280;70251;60.008;30.404;2024-03-06T12:27:13;102367.75;;;9.26;36.79
80837;BME280;70251;60.008;30.404;2024-03-06T12:29:39;102338.66;;;9.39;36.63
80837;BME280;70251;60.008;30.404;2024-03-06T12:32:16;102363.72;;;9.66;36.27
80837;BME280;70251;60.008;30.404;2024-03-06T12:34:43;102358.69;;;9.91;36.25
80837;BME280;70251;60.008;30.404;2024-03-06T12:37:10;102376.50;;;10.21;36.17
80837;BME280;70251;60.008;30.404;2024-03-06T12:39:36;102365.50;;;9.81;36.47
80837;BME280;70251;60.008;30.404;2024-03-06T12:42:02;102362.38;;;9.89;36.53
80837;BME280;70251;60.008;30.404;2024-03-06T12:44:28;102367.50;;;9.62;36.92
80837;BME280;70251;60.008;30.404;2024-03-06T12:46:53;102364.41;;;9.54;36.76
80837;BME280;70251;60.008;30.404;2024-03-06T12:49:19;102365.22;;;9.41;37.12
80837;BME280;70251;60.008;30.404;2024-03-06T12:51:45;102354.28;;;9.14;37.52
80837;BME280;70251;60.008;30.404;2024-03-06T12:54:21;102370.19;;;9.15;37.31
80837;BME280;70251;60.008;30.404;2024-03-06T12:57:16;102346.06;;;9.03;37.52
80837;BME280;70251;60.008;30.404;2024-03-06T12:59:52;102346.91;;;9.19;37.50
80837;BME280;70251;60.008;30.404;2024-03-06T13:02:17;102375.59;;;9.45;37.49
80837;BME280;70251;60.008;30.404;2024-03-06T13:04:43;102368.13;;;9.36;37.42
80837;BME280;70251;60.008;30.404;2024-03-06T13:07:09;102350.19;;;9.24;37.79
80837;BME280;70251;60.008;30.404;2024-03-06T13:12:11;102333.00;;;9.29;37.97
80837;BME280;70251;60.008;30.404;2024-03-06T13:14:37;102342.88;;;8.96;38.29
80837;BME280;70251;60.008;30.404;2024-03-06T13:17:27;102333.94;;;8.65;38.56
80837;BME280;70251;60.008;30.404;2024-03-06T13:19:54;102332.81;;;8.53;38.86
80837;BME280;70251;60.008;30.404;2024-03-06T13:22:23;102344.34;;;8.36;39.17
80837;BME280;70251;60.008;30.404;2024-03-06T13:24:48;102329.09;;;8.23;39.42
80837;BME280;70251;60.008;30.404;2024-03-06T13:27:17;102336.28;;;8.21;39.73